createdAt,value
2022-09-25T00:00:31.179Z,9.50
2022-09-25T00:01:31.197Z,13.10
2022-09-25T00:02:31.198Z,11.40
2022-09-25T00:03:31.121Z,9.90
2022-09-25T00:04:31.210Z,11.70
2022-09-25T00:05:31.087Z,10.50
2022-09-25T00:06:31.069Z,8.60
2022-09-25T00:07:31.050Z,8.90
2022-09-25T00:08:31.035Z,12.70
2022-09-25T00:09:31.015Z,11.00
2022-09-25T00:10:30.996Z,9.70
2022-09-25T00:11:30.980Z,8.50
2022-09-25T00:12:30.964Z,10.60
2022-09-25T00:13:30.937Z,10.70
2022-09-25T00:14:30.925Z,10.30
2022-09-25T00:15:30.905Z,8.50
2022-09-25T00:16:30.954Z,11.50
2022-09-25T00:17:30.870Z,15.60
2022-09-25T00:18:30.850Z,10.20
2022-09-25T00:19:30.831Z,12.30
2022-09-25T00:20:30.837Z,8.70
2022-09-25T00:21:30.794Z,14.20
2022-09-25T00:22:30.776Z,10.00
2022-09-25T00:23:30.766Z,7.40
2022-09-25T00:24:30.739Z,11.90
2022-09-25T00:25:30.724Z,11.60
2022-09-25T00:26:30.701Z,12.20
2022-09-25T00:27:30.688Z,8.40
2022-09-25T00:28:30.668Z,11.70
2022-09-25T00:29:30.651Z,6.40
2022-09-25T00:30:30.799Z,10.60
2022-09-25T00:31:30.619Z,9.00
2022-09-25T00:32:30.595Z,8.40
2022-09-25T00:33:30.580Z,8.50
2022-09-25T00:34:30.562Z,6.50
2022-09-25T00:35:30.543Z,7.40
2022-09-25T00:36:30.545Z,11.00
2022-09-25T00:37:30.509Z,9.80
2022-09-25T00:38:30.483Z,8.60
2022-09-25T00:39:30.467Z,11.80
2022-09-25T00:40:30.489Z,10.60
2022-09-25T00:41:30.432Z,7.10
2022-09-25T00:42:30.412Z,12.20
2022-09-25T00:43:30.393Z,8.60
2022-09-25T00:44:30.376Z,9.90
2022-09-25T00:45:30.358Z,8.10
2022-09-25T00:46:30.404Z,8.60
2022-09-25T00:47:30.320Z,9.30
2022-09-25T00:48:30.300Z,10.60
2022-09-25T00:49:30.287Z,9.00
2022-09-25T00:50:30.265Z,8.10
2022-09-25T00:51:30.250Z,13.00
2022-09-25T00:52:30.249Z,9.10
2022-09-25T00:53:30.218Z,9.90
2022-09-25T00:54:30.194Z,9.20
2022-09-25T00:55:30.174Z,7.70
2022-09-25T00:56:30.171Z,8.70
2022-09-25T00:57:30.155Z,7.70
2022-09-25T00:58:30.119Z,7.80
2022-09-25T00:59:30.101Z,6.20
2022-09-25T01:00:30.083Z,10.60
2022-09-25T01:01:30.174Z,7.40
2022-09-25T01:02:30.165Z,5.70
2022-09-25T01:03:30.054Z,7.30
2022-09-25T01:04:30.014Z,8.60
2022-09-25T01:05:29.995Z,6.70
2022-09-25T01:06:29.975Z,8.20
2022-09-25T01:07:29.961Z,9.70
2022-09-25T01:08:29.962Z,8.00
2022-09-25T01:09:29.925Z,8.40
2022-09-25T01:10:29.902Z,9.30
2022-09-25T01:11:29.885Z,10.70
2022-09-25T01:12:29.870Z,9.10
2022-09-25T01:13:29.913Z,9.00
2022-09-25T01:14:29.830Z,8.80
2022-09-25T01:15:29.808Z,9.60
2022-09-25T01:16:29.817Z,6.70
2022-09-25T01:17:29.774Z,7.90
2022-09-25T01:18:29.753Z,6.70
2022-09-25T01:19:29.742Z,6.70
2022-09-25T01:20:29.726Z,11.30
2022-09-25T01:21:29.702Z,8.80
2022-09-25T01:22:29.683Z,7.60
2022-09-25T01:23:29.664Z,7.70
2022-09-25T01:24:29.671Z,12.40
2022-09-25T01:25:29.634Z,8.20
2022-09-25T01:26:29.609Z,9.70
2022-09-25T01:27:29.593Z,8.90
2022-09-25T01:28:29.578Z,6.60
2022-09-25T01:29:29.551Z,9.90
2022-09-25T01:30:29.561Z,9.60
2022-09-25T01:31:29.520Z,7.80
2022-09-25T01:32:29.498Z,9.10
2022-09-25T01:33:29.486Z,8.50
2022-09-25T01:34:29.462Z,10.50
2022-09-25T01:35:29.444Z,8.10
2022-09-25T01:36:29.428Z,8.80
2022-09-25T01:37:29.413Z,10.30
2022-09-25T01:38:29.388Z,7.60
2022-09-25T01:39:29.373Z,9.50
2022-09-25T01:40:29.462Z,10.90
2022-09-25T01:41:29.332Z,8.80
2022-09-25T01:42:29.314Z,8.50
2022-09-25T01:43:29.303Z,9.40
2022-09-25T01:44:29.279Z,10.60
2022-09-25T01:45:29.260Z,9.70
2022-09-25T01:46:29.291Z,8.40
2022-09-25T01:47:29.224Z,10.30
2022-09-25T01:48:29.208Z,11.90
2022-09-25T01:49:29.188Z,6.90
2022-09-25T01:50:29.171Z,5.90
2022-09-25T01:51:29.160Z,10.20
2022-09-25T01:52:29.133Z,8.10
2022-09-25T01:53:29.112Z,6.10
2022-09-25T01:54:29.094Z,6.50
2022-09-25T01:55:29.077Z,8.70
2022-09-25T01:56:29.078Z,7.90
2022-09-25T01:57:29.041Z,8.90
2022-09-25T01:58:29.018Z,7.50
2022-09-25T01:59:29.004Z,12.00
2022-09-25T02:00:28.984Z,5.40
2022-09-25T02:01:29.050Z,9.40
2022-09-25T02:02:28.984Z,7.50
2022-09-25T02:03:28.933Z,9.30
2022-09-25T02:04:28.909Z,8.80
2022-09-25T02:05:28.896Z,10.90
2022-09-25T02:06:28.872Z,10.20
2022-09-25T02:07:28.858Z,7.80
2022-09-25T02:08:28.840Z,8.20
2022-09-25T02:09:28.819Z,9.80
2022-09-25T02:10:28.799Z,8.10
2022-09-25T02:11:28.778Z,8.60
2022-09-25T02:12:28.787Z,8.90
2022-09-25T02:13:28.744Z,7.90
2022-09-25T02:14:28.727Z,9.00
2022-09-25T02:15:28.710Z,10.50
2022-09-25T02:16:28.714Z,11.30
2022-09-25T02:17:28.669Z,7.30
2022-09-25T02:18:28.650Z,10.90
2022-09-25T02:19:28.639Z,7.50
2022-09-25T02:20:28.620Z,12.20
2022-09-25T02:21:28.598Z,6.10
2022-09-25T02:22:28.581Z,8.40
2022-09-25T02:23:28.564Z,9.20
2022-09-25T02:24:28.540Z,7.70
2022-09-25T02:25:28.524Z,10.00
2022-09-25T02:26:28.504Z,7.80
2022-09-25T02:27:28.489Z,7.80
2022-09-25T02:28:28.490Z,12.30
2022-09-25T02:29:28.452Z,7.90
2022-09-25T02:30:28.476Z,7.20
2022-09-25T02:31:28.413Z,8.50
2022-09-25T02:32:28.409Z,7.70
2022-09-25T02:33:28.377Z,10.00
2022-09-25T02:34:28.358Z,8.50
2022-09-25T02:35:28.341Z,6.50
2022-09-25T02:36:28.321Z,10.40
2022-09-25T02:37:28.304Z,7.80
2022-09-25T02:38:28.287Z,10.90
2022-09-25T02:39:28.265Z,12.20
2022-09-25T02:40:28.257Z,7.40
2022-09-25T02:41:28.229Z,9.40
2022-09-25T02:42:28.212Z,7.30
2022-09-25T02:43:28.198Z,8.00
2022-09-25T02:44:28.191Z,6.10
2022-09-25T02:45:28.154Z,8.40
2022-09-25T02:46:28.161Z,6.70
2022-09-25T02:47:28.118Z,10.10
2022-09-25T02:48:28.096Z,8.70
2022-09-25T02:49:28.078Z,11.50
2022-09-25T02:50:28.067Z,8.30
2022-09-25T02:51:28.044Z,7.40
2022-09-25T02:52:28.024Z,8.70
2022-09-25T02:53:28.006Z,11.90
2022-09-25T02:54:27.987Z,7.80
2022-09-25T02:55:27.968Z,9.30
2022-09-25T02:56:27.956Z,9.30
2022-09-25T02:57:27.935Z,8.00
2022-09-25T02:58:27.915Z,10.40
2022-09-25T02:59:27.895Z,10.30
2022-09-25T03:00:27.976Z,8.00
2022-09-25T03:01:27.892Z,7.90
2022-09-25T03:02:27.969Z,11.00
2022-09-25T03:03:27.816Z,9.50
2022-09-25T03:04:27.799Z,8.40
2022-09-25T03:05:27.784Z,11.10
2022-09-25T03:06:27.762Z,7.90
2022-09-25T03:07:27.747Z,10.70
2022-09-25T03:08:27.729Z,9.90
2022-09-25T03:09:27.708Z,7.80
2022-09-25T03:10:27.689Z,8.90
2022-09-25T03:11:27.678Z,8.90
2022-09-25T03:12:27.656Z,7.70
2022-09-25T03:13:27.634Z,10.00
2022-09-25T03:14:27.612Z,11.70
2022-09-25T03:15:27.599Z,10.40
2022-09-25T03:16:27.729Z,7.80
2022-09-25T03:17:27.557Z,9.00
2022-09-25T03:18:27.538Z,9.40
2022-09-25T03:19:27.524Z,10.90
2022-09-25T03:20:27.503Z,8.50
2022-09-25T03:21:27.485Z,11.60
2022-09-25T03:22:27.468Z,6.60
2022-09-25T03:23:27.449Z,6.40
2022-09-25T03:24:27.429Z,7.10
2022-09-25T03:25:27.414Z,9.90
2022-09-25T03:26:27.399Z,5.90
2022-09-25T03:27:27.374Z,11.60
2022-09-25T03:28:27.358Z,7.50
2022-09-25T03:29:27.350Z,11.30
2022-09-25T03:30:27.313Z,6.90
2022-09-25T03:31:27.394Z,9.50
2022-09-25T03:32:27.300Z,8.80
2022-09-25T03:33:27.262Z,9.00
2022-09-25T03:34:27.239Z,9.60
2022-09-25T03:35:27.226Z,10.80
2022-09-25T03:36:27.200Z,10.20
2022-09-25T03:37:27.198Z,8.90
2022-09-25T03:38:27.169Z,9.00
2022-09-25T03:39:27.145Z,7.30
2022-09-25T03:40:27.167Z,8.20
2022-09-25T03:41:27.107Z,10.30
2022-09-25T03:42:27.088Z,8.60
2022-09-25T03:43:27.069Z,11.70
2022-09-25T03:44:27.052Z,8.40
2022-09-25T03:45:27.033Z,7.70
2022-09-25T03:46:27.110Z,11.00
2022-09-25T03:47:26.997Z,8.00
2022-09-25T03:48:27.000Z,8.30
2022-09-25T03:49:26.960Z,10.50
2022-09-25T03:50:26.939Z,7.90
2022-09-25T03:51:26.926Z,7.50
2022-09-25T03:52:26.905Z,9.20
2022-09-25T03:53:26.888Z,8.90
2022-09-25T03:54:26.867Z,10.00
2022-09-25T03:55:26.849Z,9.00
2022-09-25T03:56:26.827Z,6.90
2022-09-25T03:57:26.810Z,8.10
2022-09-25T03:58:26.793Z,7.80
2022-09-25T03:59:26.773Z,9.50
2022-09-25T04:00:26.756Z,9.90
2022-09-25T04:01:26.824Z,8.80
2022-09-25T04:02:26.793Z,9.90
2022-09-25T04:03:26.708Z,10.10
2022-09-25T04:04:26.695Z,9.40
2022-09-25T04:05:26.659Z,9.80
2022-09-25T04:06:26.649Z,10.20
2022-09-25T04:07:26.623Z,9.10
2022-09-25T04:08:26.600Z,7.70
2022-09-25T04:09:26.583Z,10.80
2022-09-25T04:10:26.564Z,12.40
2022-09-25T04:11:26.548Z,10.20
2022-09-25T04:12:26.528Z,10.10
2022-09-25T04:13:26.516Z,9.00
2022-09-25T04:14:26.491Z,8.30
2022-09-25T04:15:26.469Z,7.70
2022-09-25T04:16:26.546Z,7.80
2022-09-25T04:17:26.438Z,11.80
2022-09-25T04:18:26.414Z,9.00
2022-09-25T04:19:26.395Z,9.40
2022-09-25T04:20:26.407Z,8.60
2022-09-25T04:21:26.356Z,10.70
2022-09-25T04:22:26.340Z,8.30
2022-09-25T04:23:26.320Z,9.10
2022-09-25T04:24:26.304Z,10.40
2022-09-25T04:25:26.285Z,7.10
2022-09-25T04:26:26.265Z,9.40
2022-09-25T04:27:26.245Z,8.50
2022-09-25T04:28:26.230Z,9.60
2022-09-25T04:29:26.209Z,8.90
2022-09-25T04:30:26.189Z,7.40
2022-09-25T04:31:26.245Z,9.40
2022-09-25T04:32:26.154Z,7.50
2022-09-25T04:33:26.134Z,10.10
2022-09-25T04:34:26.111Z,10.50
2022-09-25T04:35:26.095Z,8.00
2022-09-25T04:36:26.092Z,7.00
2022-09-25T04:37:26.057Z,11.80
2022-09-25T04:38:26.039Z,8.30
2022-09-25T04:39:26.018Z,10.20
2022-09-25T04:40:26.029Z,9.50
2022-09-25T04:41:25.989Z,7.10
2022-09-25T04:42:25.963Z,11.50
2022-09-25T04:43:25.946Z,6.60
2022-09-25T04:44:25.924Z,9.70
2022-09-25T04:45:25.908Z,9.10
2022-09-25T04:46:25.951Z,9.10
2022-09-25T04:47:25.890Z,8.80
2022-09-25T04:48:25.845Z,7.90
2022-09-25T04:49:25.826Z,8.80
2022-09-25T04:50:25.806Z,12.00
2022-09-25T04:51:25.792Z,11.20
2022-09-25T04:52:25.873Z,13.10
2022-09-25T04:53:25.752Z,9.90
2022-09-25T04:54:25.735Z,11.10
2022-09-25T04:55:25.713Z,9.70
2022-09-25T04:56:25.704Z,9.20
2022-09-25T04:57:53.683Z,10.10
2022-09-25T04:58:25.656Z,8.30
2022-09-25T04:59:25.635Z,11.30
2022-09-25T05:00:25.616Z,7.20
2022-09-25T05:01:25.684Z,9.50
2022-09-25T05:02:25.755Z,9.20
2022-09-25T05:03:25.653Z,8.40
2022-09-25T05:04:25.538Z,7.80
2022-09-25T05:05:25.524Z,9.10
2022-09-25T05:06:25.515Z,12.10
2022-09-25T05:07:25.489Z,10.60
2022-09-25T05:08:25.485Z,9.70
2022-09-25T05:09:25.446Z,9.10
2022-09-25T05:10:25.426Z,10.80
2022-09-25T05:11:25.404Z,7.90
2022-09-25T05:12:25.385Z,7.60
2022-09-25T05:13:25.366Z,11.00
2022-09-25T05:14:25.346Z,8.70
2022-09-25T05:15:25.333Z,10.80
2022-09-25T05:16:25.459Z,7.70
2022-09-25T05:17:25.288Z,10.10
2022-09-25T05:18:25.277Z,10.20
2022-09-25T05:19:25.256Z,9.30
2022-09-25T05:20:25.238Z,8.70
2022-09-25T05:21:25.217Z,9.50
2022-09-25T05:22:25.195Z,9.30
2022-09-25T05:23:25.177Z,11.30
2022-09-25T05:24:25.179Z,10.40
2022-09-25T05:25:25.136Z,8.40
2022-09-25T05:26:25.119Z,9.20
2022-09-25T05:27:25.102Z,9.40
2022-09-25T05:28:25.082Z,10.90
2022-09-25T05:29:25.062Z,13.70
2022-09-25T05:30:25.040Z,8.40
2022-09-25T05:31:25.105Z,8.90
2022-09-25T05:32:24.998Z,7.80
2022-09-25T05:33:24.998Z,7.90
2022-09-25T05:34:24.961Z,10.10
2022-09-25T05:35:24.944Z,10.70
2022-09-25T05:36:24.924Z,7.50
2022-09-25T05:37:24.911Z,9.10
2022-09-25T05:38:24.884Z,7.90
2022-09-25T05:39:24.874Z,8.70
2022-09-25T05:40:24.888Z,11.70
2022-09-25T05:41:24.828Z,9.80
2022-09-25T05:42:24.813Z,8.60
2022-09-25T05:43:24.792Z,9.90
2022-09-25T05:44:24.771Z,13.00
2022-09-25T05:45:24.750Z,9.00
2022-09-25T05:46:24.805Z,8.60
2022-09-25T05:47:24.711Z,10.60
2022-09-25T05:48:24.694Z,10.60
2022-09-25T05:49:24.670Z,6.50
2022-09-25T05:50:24.653Z,9.80
2022-09-25T05:51:24.631Z,8.30
2022-09-25T05:52:24.629Z,8.40
2022-09-25T05:53:24.596Z,10.60
2022-09-25T05:54:24.573Z,7.90
2022-09-25T05:55:24.554Z,9.70
2022-09-25T05:56:24.561Z,10.50
2022-09-25T05:57:24.537Z,9.80
2022-09-25T05:58:24.496Z,10.30
2022-09-25T05:59:24.486Z,9.30
2022-09-25T06:00:24.462Z,10.90
2022-09-25T06:01:24.483Z,9.80
2022-09-25T06:02:24.472Z,10.20
2022-09-25T06:03:24.452Z,7.40
2022-09-25T06:04:24.383Z,8.50
2022-09-25T06:05:24.357Z,10.60
2022-09-25T06:06:27.461Z,9.00
2022-09-25T06:07:24.321Z,9.50
2022-09-25T06:08:24.303Z,9.60
2022-09-25T06:09:24.282Z,10.10
2022-09-25T06:10:24.266Z,12.00
2022-09-25T06:11:24.245Z,9.10
2022-09-25T06:12:24.244Z,11.20
2022-09-25T06:13:24.225Z,9.10
2022-09-25T06:14:24.187Z,7.10
2022-09-25T06:15:24.174Z,13.20
2022-09-25T06:16:24.212Z,10.90
2022-09-25T06:17:24.139Z,8.20
2022-09-25T06:18:24.111Z,9.70
2022-09-25T06:19:24.094Z,12.00
2022-09-25T06:20:24.073Z,9.40
2022-09-25T06:21:24.053Z,9.50
2022-09-25T06:22:24.032Z,11.70
2022-09-25T06:23:24.019Z,10.10
2022-09-25T06:24:23.992Z,8.00
2022-09-25T06:25:24.043Z,10.20
2022-09-25T06:26:23.953Z,9.90
2022-09-25T06:27:23.945Z,12.00
2022-09-25T06:28:23.941Z,9.90
2022-09-25T06:29:23.905Z,12.20
2022-09-25T06:30:23.882Z,8.70
2022-09-25T06:31:23.961Z,10.30
2022-09-25T06:32:23.846Z,9.70
2022-09-25T06:33:23.824Z,6.90
2022-09-25T06:34:23.805Z,8.50
2022-09-25T06:35:23.788Z,8.20
2022-09-25T06:36:23.774Z,8.50
2022-09-25T06:37:23.749Z,7.00
2022-09-25T06:38:23.735Z,8.40
2022-09-25T06:39:23.710Z,14.10
2022-09-25T06:40:23.743Z,7.80
2022-09-25T06:41:23.676Z,9.90
2022-09-25T06:42:23.664Z,11.30
2022-09-25T06:43:23.643Z,7.70
2022-09-25T06:44:23.645Z,10.40
2022-09-25T06:45:23.612Z,7.30
2022-09-25T06:46:23.637Z,6.30
2022-09-25T06:47:26.870Z,8.20
2022-09-25T06:48:23.557Z,7.50
2022-09-25T06:49:23.542Z,7.80
2022-09-25T06:50:23.524Z,8.40
2022-09-25T06:51:23.513Z,7.70
2022-09-25T06:52:23.493Z,7.40
2022-09-25T06:53:23.500Z,9.50
2022-09-25T06:54:23.471Z,9.00
2022-09-25T06:55:23.457Z,7.60
2022-09-25T06:56:23.441Z,6.80
2022-09-25T06:57:23.420Z,7.80
2022-09-25T06:58:23.418Z,6.30
2022-09-25T06:59:23.405Z,5.90
2022-09-25T07:00:23.415Z,6.20
2022-09-25T07:01:23.448Z,6.80
2022-09-25T07:02:23.462Z,6.60
2022-09-25T07:03:23.355Z,5.40
2022-09-25T07:04:23.347Z,5.40
2022-09-25T07:05:23.334Z,5.60
2022-09-25T07:06:23.324Z,7.20
2022-09-25T07:07:23.313Z,5.70
2022-09-25T07:08:23.308Z,6.00
2022-09-25T07:09:23.295Z,7.60
2022-09-25T07:10:23.286Z,6.80
2022-09-25T07:11:23.277Z,6.00
2022-09-25T07:12:23.272Z,6.20
2022-09-25T07:13:23.263Z,7.40
2022-09-25T07:14:23.246Z,7.10
2022-09-25T07:15:23.243Z,4.90
2022-09-25T07:16:23.304Z,6.20
2022-09-25T07:17:23.225Z,6.50
2022-09-25T07:18:23.218Z,6.90
2022-09-25T07:19:27.082Z,6.30
2022-09-25T07:20:23.209Z,6.40
2022-09-25T07:21:23.195Z,6.40
2022-09-25T07:22:23.190Z,6.10
2022-09-25T07:23:23.183Z,4.90
2022-09-25T07:24:23.181Z,6.80
2022-09-25T07:25:23.175Z,4.60
2022-09-25T07:26:23.169Z,6.20
2022-09-25T07:27:23.161Z,6.80
2022-09-25T07:28:23.162Z,5.20
2022-09-25T07:29:23.150Z,6.20
2022-09-25T07:30:23.151Z,5.80
2022-09-25T07:31:23.214Z,5.40
2022-09-25T07:32:23.157Z,5.80
2022-09-25T07:33:23.135Z,5.10
2022-09-25T07:34:23.129Z,7.30
2022-09-25T07:35:23.126Z,6.70
2022-09-25T07:36:23.141Z,6.10
2022-09-25T07:37:23.114Z,6.80
2022-09-25T07:38:23.116Z,6.00
2022-09-25T07:39:23.114Z,5.60
2022-09-25T07:40:23.198Z,5.20
2022-09-25T07:41:23.109Z,8.20
2022-09-25T07:42:23.104Z,5.70
2022-09-25T07:43:23.103Z,5.30
2022-09-25T07:44:36.232Z,6.00
2022-09-25T07:45:23.109Z,5.60
2022-09-25T07:46:23.157Z,8.30
2022-09-25T07:47:23.095Z,5.60
2022-09-25T07:48:23.123Z,7.10
2022-09-25T07:49:23.094Z,4.70
2022-09-25T07:50:23.122Z,5.30
2022-09-25T07:51:23.091Z,7.20
2022-09-25T07:52:23.089Z,5.60
2022-09-25T07:53:23.090Z,4.90
2022-09-25T07:54:23.087Z,22.10
2022-09-25T07:55:23.091Z,8.00
2022-09-25T07:56:23.089Z,5.80
2022-09-25T07:57:23.088Z,5.80
2022-09-25T07:58:23.086Z,6.70
2022-09-25T07:59:23.094Z,6.50
2022-09-25T08:00:23.087Z,6.10
2022-09-25T08:01:23.183Z,6.20
2022-09-25T08:02:23.206Z,7.10
2022-09-25T08:03:23.084Z,5.30
2022-09-25T08:04:23.109Z,5.50
2022-09-25T08:05:23.082Z,5.30
2022-09-25T08:06:23.083Z,5.70
2022-09-25T08:07:23.082Z,5.70
2022-09-25T08:08:23.087Z,5.80
2022-09-25T08:09:23.083Z,5.10
2022-09-25T08:10:23.135Z,6.20
2022-09-25T08:11:23.084Z,4.60
2022-09-25T08:12:23.086Z,5.40
2022-09-25T08:13:23.089Z,6.20
2022-09-25T08:14:26.674Z,14.60
2022-09-25T08:15:23.094Z,12.70
2022-09-25T08:16:23.133Z,5.90
2022-09-25T08:17:23.092Z,5.00
2022-09-25T08:18:23.092Z,5.90
2022-09-25T08:19:23.089Z,5.80
2022-09-25T08:20:23.116Z,4.90
2022-09-25T08:21:23.100Z,5.70
2022-09-25T08:22:23.094Z,5.40
2022-09-25T08:23:23.095Z,7.10
2022-09-25T08:24:23.095Z,5.10
2022-09-25T08:25:23.097Z,4.40
2022-09-25T08:26:23.146Z,4.80
2022-09-25T08:27:23.100Z,5.30
2022-09-25T08:28:23.122Z,5.50
2022-09-25T08:29:23.114Z,5.30
2022-09-25T08:30:23.107Z,6.20
2022-09-25T08:31:23.181Z,6.40
2022-09-25T08:32:23.106Z,5.90
2022-09-25T08:33:23.110Z,5.90
2022-09-25T08:34:41.977Z,4.60
2022-09-25T08:35:23.114Z,4.10
2022-09-25T08:36:23.135Z,5.70
2022-09-25T08:37:23.115Z,6.10
2022-09-25T08:38:23.117Z,4.80
2022-09-25T08:39:23.122Z,5.40
2022-09-25T08:40:23.200Z,4.80
2022-09-25T08:41:23.121Z,5.40
2022-09-25T08:42:23.125Z,4.70
2022-09-25T08:43:23.129Z,4.20
2022-09-25T08:44:23.134Z,4.80
2022-09-25T08:45:23.130Z,5.90
2022-09-25T08:46:23.214Z,4.20
2022-09-25T08:47:23.131Z,5.20
2022-09-25T08:48:23.137Z,5.70
2022-09-25T08:49:23.135Z,4.00
2022-09-25T08:50:23.137Z,4.40
2022-09-25T08:51:23.137Z,4.90
2022-09-25T08:52:23.159Z,4.90
2022-09-25T08:54:23.145Z,4.80
2022-09-25T08:55:23.144Z,4.80
2022-09-25T08:56:23.147Z,5.10
2022-09-25T08:57:23.154Z,4.60
2022-09-25T08:58:23.150Z,5.90
2022-09-25T08:59:23.149Z,7.50
2022-09-25T09:00:23.153Z,6.50
2022-09-25T09:01:23.241Z,7.10
2022-09-25T09:02:23.274Z,5.00
2022-09-25T09:03:23.154Z,3.90
2022-09-25T09:04:23.152Z,4.90
2022-09-25T09:05:23.155Z,5.80
2022-09-25T09:06:23.155Z,5.20
2022-09-25T09:07:27.848Z,4.50
2022-09-25T09:08:23.257Z,7.60
2022-09-25T09:09:23.154Z,6.70
2022-09-25T09:10:23.149Z,3.80
2022-09-25T09:11:23.147Z,6.40
2022-09-25T09:12:23.147Z,4.20
2022-09-25T09:13:23.142Z,4.90
2022-09-25T09:14:23.141Z,4.40
2022-09-25T09:15:23.136Z,5.70
2022-09-25T09:16:23.137Z,4.70
2022-09-25T09:17:23.127Z,5.40
2022-09-25T09:18:23.126Z,4.90
2022-09-25T09:19:23.120Z,5.20
2022-09-25T09:20:23.118Z,5.00
2022-09-25T09:21:23.111Z,7.20
2022-09-25T09:22:23.107Z,4.20
2022-09-25T09:23:23.111Z,3.80
2022-09-25T09:24:23.122Z,4.70
2022-09-25T09:25:23.094Z,5.10
2022-09-25T09:26:23.092Z,4.00
2022-09-25T09:27:23.086Z,5.10
2022-09-25T09:28:23.087Z,5.00
2022-09-25T09:29:23.083Z,4.40
2022-09-25T09:30:23.074Z,6.10
2022-09-25T09:31:23.193Z,6.40
2022-09-25T09:32:23.069Z,7.10
2022-09-25T09:33:23.061Z,6.20
2022-09-25T09:34:36.134Z,8.00
2022-09-25T09:35:23.048Z,12.50
2022-09-25T09:36:23.061Z,7.60
2022-09-25T09:37:23.032Z,4.60
2022-09-25T09:38:23.030Z,5.90
2022-09-25T09:39:23.028Z,6.40
2022-09-25T09:40:23.115Z,6.40
2022-09-25T09:41:23.010Z,5.70
2022-09-25T09:42:23.007Z,6.70
2022-09-25T09:43:23.012Z,6.50
2022-09-25T09:44:23.028Z,5.10
2022-09-25T09:45:22.985Z,5.60
2022-09-25T09:46:23.037Z,8.30
2022-09-25T09:47:22.971Z,5.10
2022-09-25T09:48:22.959Z,4.70
2022-09-25T09:49:22.964Z,14.10
2022-09-25T09:50:22.947Z,16.10
2022-09-25T09:51:22.937Z,7.40
2022-09-25T09:52:22.935Z,11.30
2022-09-25T09:53:22.925Z,8.40
2022-09-25T09:54:22.915Z,6.30
2022-09-25T09:55:22.911Z,6.70
2022-09-25T09:56:23.008Z,5.30
2022-09-25T09:57:22.898Z,5.90
2022-09-25T09:58:22.888Z,3.90
2022-09-25T09:59:22.881Z,4.50
2022-09-25T10:00:22.887Z,4.20
2022-09-25T10:01:40.247Z,5.60
2022-09-25T10:02:23.018Z,5.20
2022-09-25T10:03:22.992Z,4.20
2022-09-25T10:04:22.844Z,6.00
2022-09-25T10:05:22.838Z,4.80
2022-09-25T10:06:22.846Z,5.00
2022-09-25T10:07:22.822Z,5.70
2022-09-25T10:08:22.817Z,8.70
2022-09-25T10:09:22.804Z,6.70
2022-09-25T10:10:22.793Z,6.00
2022-09-25T10:11:22.785Z,4.50
2022-09-25T10:12:22.818Z,4.00
2022-09-25T10:13:22.767Z,5.80
2022-09-25T10:14:22.761Z,6.20
2022-09-25T10:15:22.755Z,6.40
2022-09-25T10:16:22.754Z,4.20
2022-09-25T10:17:22.735Z,3.80
2022-09-25T10:18:22.723Z,7.60
2022-09-25T10:19:22.717Z,5.10
2022-09-25T10:20:22.705Z,3.50
2022-09-25T10:21:22.695Z,7.10
2022-09-25T10:22:22.691Z,3.60
2022-09-25T10:23:22.682Z,5.20
2022-09-25T10:24:22.674Z,5.10
2022-09-25T10:25:22.661Z,2.90
2022-09-25T10:26:22.658Z,5.00
2022-09-25T10:27:22.642Z,5.40
2022-09-25T10:28:22.684Z,4.30
2022-09-25T10:29:22.635Z,3.30
2022-09-25T10:30:22.620Z,6.50
2022-09-25T10:31:22.644Z,4.60
2022-09-25T10:32:22.603Z,5.80
2022-09-25T10:33:22.592Z,5.90
2022-09-25T10:34:22.616Z,6.40
2022-09-25T10:35:22.575Z,7.80
2022-09-25T10:36:22.565Z,4.20
2022-09-25T10:37:22.567Z,4.90
2022-09-25T10:38:22.553Z,5.50
2022-09-25T10:39:42.951Z,4.30
2022-09-25T10:40:22.582Z,5.30
2022-09-25T10:41:22.517Z,4.20
2022-09-25T10:42:22.513Z,4.00
2022-09-25T10:43:22.499Z,5.80
2022-09-25T10:44:22.593Z,5.70
2022-09-25T10:45:22.477Z,6.00
2022-09-25T10:46:22.501Z,4.20
2022-09-25T10:47:22.459Z,5.10
2022-09-25T10:48:22.444Z,5.00
2022-09-25T10:49:22.438Z,6.50
2022-09-25T10:50:22.431Z,5.70
2022-09-25T10:51:22.426Z,4.70
2022-09-25T10:52:22.430Z,5.50
2022-09-25T10:53:22.391Z,4.30
2022-09-25T10:54:22.383Z,4.40
2022-09-25T10:55:22.378Z,4.20
2022-09-25T10:56:22.366Z,3.60
2022-09-25T10:57:22.353Z,5.20
2022-09-25T10:58:22.344Z,4.00
2022-09-25T10:59:22.634Z,4.80
2022-09-25T11:00:22.350Z,4.70
2022-09-25T11:01:22.420Z,5.40
2022-09-25T11:02:22.481Z,4.00
2022-09-25T11:03:22.298Z,4.20
2022-09-25T11:04:22.286Z,3.60
2022-09-25T11:05:22.276Z,4.60
2022-09-25T11:06:22.265Z,4.00
2022-09-25T11:07:22.255Z,4.40
2022-09-25T11:08:22.244Z,4.30
2022-09-25T11:09:22.237Z,4.70
2022-09-25T11:10:22.236Z,5.80
2022-09-25T11:11:22.214Z,3.90
2022-09-25T11:12:22.215Z,8.60
2022-09-25T11:13:22.203Z,10.00
2022-09-25T11:14:22.182Z,6.40
2022-09-25T11:15:22.178Z,4.70
2022-09-25T11:16:22.221Z,3.80
2022-09-25T11:17:22.165Z,4.20
2022-09-25T11:18:22.151Z,5.60
2022-09-25T11:19:22.135Z,5.10
2022-09-25T11:20:22.125Z,4.00
2022-09-25T11:21:22.119Z,5.50
2022-09-25T11:22:22.102Z,3.10
2022-09-25T11:23:22.094Z,4.00
2022-09-25T11:24:22.079Z,3.90
2022-09-25T11:25:22.073Z,3.50
2022-09-25T11:26:22.061Z,3.30
2022-09-25T11:27:22.050Z,6.00
2022-09-25T11:28:22.046Z,10.90
2022-09-25T11:29:22.029Z,9.60
2022-09-25T11:30:22.020Z,6.10
2022-09-25T11:31:22.069Z,5.70
2022-09-25T11:32:22.018Z,4.00
2022-09-25T11:33:22.038Z,4.10
2022-09-25T11:34:21.977Z,5.60
2022-09-25T11:35:21.979Z,4.60
2022-09-25T11:36:21.952Z,5.00
2022-09-25T11:37:21.941Z,4.10
2022-09-25T11:38:21.930Z,3.90
2022-09-25T11:39:21.934Z,4.70
2022-09-25T11:40:21.931Z,4.40
2022-09-25T11:41:21.900Z,4.40
2022-09-25T11:42:21.885Z,4.60
2022-09-25T11:43:21.877Z,4.50
2022-09-25T11:44:21.865Z,3.40
2022-09-25T11:45:21.856Z,4.60
2022-09-25T11:46:21.898Z,3.70
2022-09-25T11:47:21.835Z,3.80
2022-09-25T11:48:21.847Z,3.80
2022-09-25T11:49:21.810Z,4.10
2022-09-25T11:50:21.806Z,3.50
2022-09-25T11:51:21.791Z,3.30
2022-09-25T11:52:21.779Z,4.30
2022-09-25T11:53:21.774Z,5.30
2022-09-25T11:55:21.750Z,4.60
2022-09-25T11:56:21.740Z,3.50
2022-09-25T11:57:21.727Z,3.00
2022-09-25T11:58:21.719Z,3.10
2022-09-25T11:59:21.713Z,3.60
2022-09-25T12:00:21.697Z,3.10
2022-09-25T12:01:21.720Z,3.90
2022-09-25T12:02:21.708Z,4.30
2022-09-25T12:03:21.671Z,3.50
2022-09-25T12:04:21.674Z,2.70
2022-09-25T12:05:21.642Z,4.00
2022-09-25T12:06:21.646Z,3.70
2022-09-25T12:07:21.623Z,4.40
2022-09-25T12:08:21.622Z,3.60
2022-09-25T12:09:21.601Z,4.50
2022-09-25T12:10:21.595Z,4.50
2022-09-25T12:11:21.582Z,4.00
2022-09-25T12:12:21.577Z,3.80
2022-09-25T12:13:21.561Z,3.30
2022-09-25T12:14:21.547Z,4.30
2022-09-25T12:15:21.543Z,3.70
2022-09-25T12:16:21.543Z,3.10
2022-09-25T12:17:21.518Z,3.30
2022-09-25T12:18:21.508Z,4.70
2022-09-25T12:19:21.504Z,4.20
2022-09-25T12:20:21.592Z,4.10
2022-09-25T12:21:21.479Z,3.00
2022-09-25T12:22:21.470Z,3.90
2022-09-25T12:23:21.458Z,3.90
2022-09-25T12:24:21.455Z,3.10
2022-09-25T12:25:21.437Z,5.40
2022-09-25T12:26:21.424Z,3.40
2022-09-25T12:27:21.416Z,3.60
2022-09-25T12:28:21.399Z,3.70
2022-09-25T12:29:21.393Z,4.80
2022-09-25T12:30:21.383Z,3.10
2022-09-25T12:31:21.413Z,3.90
2022-09-25T12:32:21.365Z,3.00
2022-09-25T12:33:21.352Z,3.40
2022-09-25T12:34:21.337Z,2.70
2022-09-25T12:35:21.334Z,2.70
2022-09-25T12:36:21.424Z,3.40
2022-09-25T12:37:25.392Z,5.40
2022-09-25T12:38:21.298Z,2.90
2022-09-25T12:39:21.288Z,3.00
2022-09-25T12:40:21.339Z,3.50
2022-09-25T12:41:21.268Z,4.20
2022-09-25T12:42:21.255Z,3.00
2022-09-25T12:43:21.244Z,3.30
2022-09-25T12:44:26.491Z,3.70
2022-09-25T12:45:21.224Z,3.50
2022-09-25T12:46:21.260Z,4.60
2022-09-25T12:47:21.207Z,3.10
2022-09-25T12:48:21.196Z,4.70
2022-09-25T12:49:21.186Z,3.00
2022-09-25T12:50:21.313Z,3.10
2022-09-25T12:51:21.162Z,3.30
2022-09-25T12:52:21.171Z,3.70
2022-09-25T12:53:21.138Z,2.90
2022-09-25T12:54:21.129Z,3.60
2022-09-25T12:55:21.121Z,4.70
2022-09-25T12:56:21.115Z,3.50
2022-09-25T12:57:21.099Z,3.10
2022-09-25T12:58:21.090Z,3.00
2022-09-25T12:59:21.077Z,3.20
2022-09-25T13:00:21.180Z,3.80
2022-09-25T13:01:21.220Z,3.40
2022-09-25T13:02:21.175Z,3.10
2022-09-25T13:03:21.041Z,3.30
2022-09-25T13:04:21.075Z,3.20
2022-09-25T13:05:22.111Z,3.00
2022-09-25T13:06:21.003Z,2.70
2022-09-25T13:07:21.001Z,2.90
2022-09-25T13:08:21.016Z,3.60
2022-09-25T13:09:20.970Z,3.60
2022-09-25T13:10:20.964Z,3.50
2022-09-25T13:11:20.953Z,3.10
2022-09-25T13:12:20.941Z,3.90
2022-09-25T13:13:20.940Z,2.80
2022-09-25T13:14:20.920Z,3.30
2022-09-25T13:15:20.909Z,4.10